createdAt,value
2022-12-01T00:01:54.344Z,100499.64
2022-12-01T00:04:56.458Z,100493.13
2022-12-01T00:07:59.451Z,100500.89
2022-12-01T00:11:12.260Z,100505.48
2022-12-01T00:14:14.649Z,100501.44
2022-12-01T00:17:16.460Z,100503.52
2022-12-01T00:20:18.558Z,100502.52
2022-12-01T00:23:20.319Z,100511.02
2022-12-01T00:26:22.847Z,100504.27
2022-12-01T00:29:24.568Z,100499.59
2022-12-01T00:32:26.313Z,100499.13
2022-12-01T00:35:28.039Z,100499.01
2022-12-01T00:38:30.120Z,100498.17
2022-12-01T00:41:31.886Z,100496.71
2022-12-01T00:44:33.552Z,100497.02
2022-12-01T00:47:35.997Z,100502.72
2022-12-01T00:50:37.678Z,100500.38
2022-12-01T00:53:39.370Z,100498.41
2022-12-01T00:56:41.436Z,100497.22
2022-12-01T00:59:46.644Z,100497.25
2022-12-01T01:02:48.644Z,100497.79
2022-12-01T01:05:50.541Z,100500.15
2022-12-01T01:08:52.287Z,100497.38
2022-12-01T01:11:54.690Z,100494.88
2022-12-01T01:14:56.327Z,100493.01
2022-12-01T01:18:03.620Z,100487.05
2022-12-01T01:21:08.357Z,100483.66
2022-12-01T01:24:10.257Z,100483.13
2022-12-01T01:27:11.900Z,100482.28
2022-12-01T01:30:14.084Z,100474.98
2022-12-01T01:33:15.766Z,100473.20
2022-12-01T01:36:19.034Z,100472.56
2022-12-01T01:39:21.052Z,100467.17
2022-12-01T01:42:22.872Z,100464.35
2022-12-01T01:45:25.919Z,100468.89
2022-12-01T01:48:27.753Z,100469.63
2022-12-01T01:51:40.740Z,100469.91
2022-12-01T01:54:46.201Z,100465.04
2022-12-01T01:57:48.022Z,100462.94
2022-12-01T02:00:50.076Z,100467.96
2022-12-01T02:03:53.362Z,100466.14
2022-12-01T02:06:55.318Z,100465.95
2022-12-01T02:09:57.435Z,100463.17
2022-12-01T02:13:26.214Z,100458.16
2022-12-01T02:16:33.875Z,100454.73
2022-12-01T02:20:11.074Z,100454.81
2022-12-01T02:23:48.772Z,100457.77
2022-12-01T02:27:03.126Z,100458.84
2022-12-01T02:30:14.440Z,100455.29
2022-12-01T02:33:19.900Z,100454.11
2022-12-01T02:36:33.716Z,100457.28
2022-12-01T02:39:39.136Z,100460.86
2022-12-01T02:43:02.340Z,100459.21
2022-12-01T02:46:06.115Z,100456.54
2022-12-01T02:49:17.262Z,100456.57
2022-12-01T02:52:20.018Z,100452.39
2022-12-01T02:55:21.870Z,100449.54
2022-12-01T02:58:23.664Z,100447.09
2022-12-01T03:02:03.005Z,100449.33
2022-12-01T03:05:21.412Z,100448.09
2022-12-01T03:08:46.151Z,100448.29
2022-12-01T03:12:30.945Z,100454.38
2022-12-01T03:15:37.748Z,100453.82
2022-12-01T03:18:46.316Z,100451.98
2022-12-01T03:22:11.125Z,100449.51
2022-12-01T03:25:13.583Z,100443.20
2022-12-01T03:28:21.850Z,100449.96
2022-12-01T03:31:28.067Z,100446.20
2022-12-01T03:34:49.919Z,100443.26
2022-12-01T03:38:24.610Z,100441.21
2022-12-01T03:41:31.791Z,100439.87
2022-12-01T03:44:37.069Z,100438.73
2022-12-01T03:47:40.592Z,100435.02
2022-12-01T03:50:52.265Z,100431.85
2022-12-01T03:54:26.561Z,100426.75
2022-12-01T03:58:16.464Z,100425.41
2022-12-01T04:01:18.279Z,100420.05
2022-12-01T04:04:20.038Z,100417.97
2022-12-01T04:07:22.048Z,100417.13
2022-12-01T04:10:23.888Z,100414.25
2022-12-01T04:13:25.975Z,100413.38
2022-12-01T04:16:27.699Z,100414.84
2022-12-01T04:19:29.502Z,100407.83
2022-12-01T04:22:31.138Z,100408.63
2022-12-01T04:25:33.193Z,100405.95
2022-12-01T04:28:34.828Z,100399.77
2022-12-01T04:31:36.886Z,100398.76
2022-12-01T04:34:38.605Z,100399.67
2022-12-01T04:37:41.152Z,100405.30
2022-12-01T04:40:42.882Z,100407.17
2022-12-01T04:43:44.631Z,100405.09
2022-12-01T04:46:46.414Z,100408.04
2022-12-01T04:49:48.305Z,100407.66
2022-12-01T04:52:50.176Z,100408.79
2022-12-01T04:55:51.864Z,100414.73
2022-12-01T04:58:53.571Z,100416.94
2022-12-01T05:01:55.212Z,100415.33
2022-12-01T05:04:56.991Z,100417.66
2022-12-01T05:07:59.503Z,100418.66
2022-12-01T05:11:02.304Z,100413.46
2022-12-01T05:14:04.188Z,100420.03
2022-12-01T05:17:05.924Z,100415.71
2022-12-01T05:20:26.638Z,100418.04
2022-12-01T05:23:33.180Z,100421.48
2022-12-01T05:26:35.175Z,100426.83
2022-12-01T05:29:37.070Z,100425.33
2022-12-01T05:32:38.682Z,100426.88
2022-12-01T05:35:40.675Z,100429.56
2022-12-01T05:38:43.463Z,100429.40
2022-12-01T05:41:45.350Z,100430.23
2022-12-01T05:44:47.014Z,100435.25
2022-12-01T05:47:48.707Z,100438.48
2022-12-01T05:50:50.329Z,100437.75
2022-12-01T05:53:52.109Z,100442.14
2022-12-01T05:56:53.744Z,100440.33
2022-12-01T05:59:55.418Z,100442.71
2022-12-01T06:02:57.191Z,100440.38
2022-12-01T06:05:58.833Z,100443.57
2022-12-01T06:09:00.626Z,100447.16
2022-12-01T06:12:02.453Z,100447.61
2022-12-01T06:15:05.149Z,100453.08
2022-12-01T06:18:07.143Z,100452.41
2022-12-01T06:21:08.767Z,100455.95
2022-12-01T06:24:10.704Z,100457.85
2022-12-01T06:27:12.475Z,100463.63
2022-12-01T06:30:14.164Z,100464.52
2022-12-01T06:33:15.808Z,100466.48
2022-12-01T06:36:17.567Z,100464.11
2022-12-01T06:39:20.536Z,100465.30
2022-12-01T06:42:22.927Z,100466.29
2022-12-01T06:45:24.600Z,100466.43
2022-12-01T06:48:26.443Z,100464.35
2022-12-01T06:51:28.679Z,100461.38
2022-12-01T06:54:30.568Z,100461.34
2022-12-01T06:57:32.239Z,100465.48
2022-12-01T07:00:34.243Z,100463.24
2022-12-01T07:03:35.930Z,100462.85
2022-12-01T07:06:37.944Z,100463.70
2022-12-01T07:09:39.690Z,100460.02
2022-12-01T07:12:41.329Z,100465.50
2022-12-01T07:15:43.262Z,100466.63
2022-12-01T07:18:45.165Z,100464.85
2022-12-01T07:21:46.853Z,100465.52
2022-12-01T07:24:48.470Z,100464.75
2022-12-01T07:27:50.245Z,100461.92
2022-12-01T07:30:51.947Z,100462.16
2022-12-01T07:33:53.741Z,100457.80
2022-12-01T07:36:55.550Z,100458.54
2022-12-01T07:39:57.220Z,100459.04
2022-12-01T07:42:58.881Z,100458.29
2022-12-01T07:46:08.764Z,100456.86
2022-12-01T07:49:12.541Z,100457.27
2022-12-01T07:52:14.283Z,100456.55
2022-12-01T07:55:15.916Z,100455.13
2022-12-01T07:58:17.755Z,100453.45
2022-12-01T08:01:20.585Z,100457.33
2022-12-01T08:04:22.502Z,100452.80
2022-12-01T08:07:29.598Z,100451.98
2022-12-01T08:10:31.686Z,100450.60
2022-12-01T08:13:33.586Z,100455.52
2022-12-01T08:16:35.231Z,100457.85
2022-12-01T08:19:37.093Z,100458.38
2022-12-01T08:22:38.740Z,100456.20
2022-12-01T08:25:41.178Z,100461.40
2022-12-01T08:28:42.911Z,100465.88
2022-12-01T08:31:44.997Z,100471.05
2022-12-01T08:34:52.970Z,100472.44
2022-12-01T08:37:55.129Z,100469.02
2022-12-01T08:41:03.829Z,100469.67
2022-12-01T08:44:05.499Z,100473.73
2022-12-01T08:47:07.258Z,100476.60
2022-12-01T08:50:09.096Z,100477.67
2022-12-01T08:53:10.874Z,100479.61
2022-12-01T08:56:26.354Z,100479.52
2022-12-01T08:59:28.109Z,100479.71
2022-12-01T09:02:29.962Z,100482.33
2022-12-01T09:05:31.764Z,100476.92
2022-12-01T09:08:35.097Z,100478.82
2022-12-01T09:11:37.162Z,100478.10
2022-12-01T09:14:40.882Z,100478.18
2022-12-01T09:17:42.661Z,100478.13
2022-12-01T09:20:44.323Z,100475.33
2022-12-01T09:23:46.631Z,100474.91
2022-12-01T09:26:48.407Z,100476.30
2022-12-01T09:29:50.480Z,100473.59
2022-12-01T09:32:52.433Z,100466.42
2022-12-01T09:35:58.667Z,100468.06
2022-12-01T09:39:00.523Z,100466.59
2022-12-01T09:42:13.907Z,100464.90
2022-12-01T09:45:26.288Z,100457.67
2022-12-01T09:48:33.476Z,100457.52
2022-12-01T09:51:36.973Z,100455.58
2022-12-01T09:54:38.739Z,100452.52
2022-12-01T09:57:40.460Z,100457.46
2022-12-01T10:00:43.758Z,100448.02
2022-12-01T10:03:55.260Z,100448.27
2022-12-01T10:07:02.696Z,100450.57
2022-12-01T10:10:14.321Z,100449.16
2022-12-01T10:13:34.496Z,100449.30
2022-12-01T10:16:54.414Z,100445.55
2022-12-01T10:20:05.332Z,100443.17
2022-12-01T10:23:16.262Z,100442.44
2022-12-01T10:26:26.887Z,100443.84
2022-12-01T10:29:38.191Z,100445.38
2022-12-01T10:32:57.640Z,100446.63
2022-12-01T10:35:59.393Z,100446.16
2022-12-01T10:39:01.903Z,100438.73
2022-12-01T10:42:08.158Z,100438.52
2022-12-01T10:45:45.620Z,100433.15
2022-12-01T10:48:56.217Z,100429.30
2022-12-01T10:51:58.321Z,100426.75
2022-12-01T10:55:00.920Z,100424.62
2022-12-01T10:58:15.108Z,100420.35
2022-12-01T11:01:23.340Z,100418.08
2022-12-01T11:04:51.690Z,100421.33
2022-12-01T11:07:54.038Z,100415.86
2022-12-01T11:10:56.878Z,100416.70
2022-12-01T11:14:01.518Z,100414.54
2022-12-01T11:17:26.633Z,100410.25
2022-12-01T11:20:31.913Z,100412.96
2022-12-01T11:23:37.068Z,100410.58
2022-12-01T11:26:38.841Z,100407.23
2022-12-01T11:29:40.547Z,100406.92
2022-12-01T11:32:52.803Z,100404.11
2022-12-01T11:35:55.076Z,100405.39
2022-12-01T11:38:59.331Z,100407.84
2022-12-01T11:42:04.186Z,100406.95
2022-12-01T11:45:21.202Z,100409.50
2022-12-01T11:48:30.763Z,100411.69
2022-12-01T11:51:37.781Z,100408.68
2022-12-01T11:54:55.517Z,100403.48
2022-12-01T11:58:02.249Z,100394.54
2022-12-01T12:01:04.799Z,100397.61
2022-12-01T12:04:26.660Z,100395.80
2022-12-01T12:07:45.191Z,100402.55
2022-12-01T12:11:10.395Z,100399.23
2022-12-01T12:14:30.942Z,100394.23
2022-12-01T12:17:56.130Z,100399.41
2022-12-01T12:21:20.955Z,100402.66
2022-12-01T12:24:41.519Z,100399.77
2022-12-01T12:27:51.369Z,100400.63
2022-12-01T12:31:16.282Z,100402.83
2022-12-01T12:34:25.436Z,100400.99
2022-12-01T12:37:42.617Z,100397.92
2022-12-01T12:40:53.587Z,100396.17
2022-12-01T12:44:18.156Z,100394.42
2022-12-01T12:47:32.232Z,100397.40
2022-12-01T12:50:44.872Z,100403.64
2022-12-01T12:53:51.686Z,100397.63
2022-12-01T12:56:59.408Z,100397.62
2022-12-01T13:00:15.336Z,100398.52
2022-12-01T13:03:34.050Z,100399.06
2022-12-01T13:06:42.570Z,100399.06
2022-12-01T13:09:52.930Z,100399.89
2022-12-01T13:12:59.315Z,100401.53
2022-12-01T13:16:03.569Z,100400.88
2022-12-01T13:19:16.028Z,100400.30
2022-12-01T13:22:19.710Z,100407.37
2022-12-01T13:25:27.791Z,100409.42
2022-12-01T13:28:35.709Z,100409.05
2022-12-01T13:31:47.847Z,100406.50
2022-12-01T13:34:49.593Z,100407.05
2022-12-01T13:37:51.742Z,100407.33
2022-12-01T13:41:10.585Z,100411.18
2022-12-01T13:44:42.515Z,100411.09
2022-12-01T13:47:46.998Z,100410.17
2022-12-01T13:51:07.198Z,100408.88
2022-12-01T13:54:30.087Z,100408.08
2022-12-01T13:57:33.859Z,100411.60
2022-12-01T14:00:35.691Z,100411.23
2022-12-01T14:03:39.879Z,100411.14
2022-12-01T14:06:49.520Z,100409.77
2022-12-01T14:09:54.318Z,100409.44
2022-12-01T14:12:59.761Z,100407.87
2022-12-01T14:16:03.895Z,100410.17
2022-12-01T14:19:05.797Z,100407.73
2022-12-01T14:22:28.157Z,100405.03
2022-12-01T14:25:30.798Z,100410.46
2022-12-01T14:29:00.844Z,100405.63
2022-12-01T14:32:04.003Z,100398.18
2022-12-01T14:35:11.361Z,100404.08
2022-12-01T14:38:13.438Z,100405.33
2022-12-01T14:41:22.751Z,100402.94
2022-12-01T14:44:36.040Z,100399.10
2022-12-01T14:47:42.805Z,100402.15
2022-12-01T14:50:51.616Z,100405.23
2022-12-01T14:53:55.218Z,100406.16
2022-12-01T14:57:05.591Z,100406.70
2022-12-01T15:00:17.021Z,100408.30
2022-12-01T15:03:18.805Z,100410.30
2022-12-01T15:06:24.596Z,100404.87
2022-12-01T15:09:35.166Z,100405.13
2022-12-01T15:12:37.507Z,100409.89
2022-12-01T15:15:49.061Z,100402.37
2022-12-01T15:18:51.940Z,100400.83
2022-12-01T15:21:53.618Z,100395.53
2022-12-01T15:25:04.781Z,100400.75
2022-12-01T15:28:21.831Z,100398.39
2022-12-01T15:31:23.566Z,100405.95
2022-12-01T15:34:28.472Z,100406.31
2022-12-01T15:37:39.835Z,100407.81
2022-12-01T15:41:13.313Z,100410.75
2022-12-01T15:44:05.592Z,100408.45
2022-12-01T15:47:35.953Z,100408.42
2022-12-01T15:50:44.727Z,100408.21
2022-12-01T15:53:58.958Z,100407.23
2022-12-01T15:57:01.084Z,100411.92
2022-12-01T16:00:04.015Z,100413.71
2022-12-01T16:03:05.688Z,100412.10
2022-12-01T16:06:11.821Z,100410.88
2022-12-01T16:09:28.830Z,100412.38
2022-12-01T16:12:36.720Z,100410.59
2022-12-01T16:15:43.714Z,100414.17
2022-12-01T16:18:56.524Z,100418.83
2022-12-01T16:22:18.454Z,100415.14
2022-12-01T16:25:32.542Z,100411.55
2022-12-01T16:28:36.053Z,100413.95
2022-12-01T16:31:52.695Z,100410.29
2022-12-01T16:34:59.828Z,100410.73
2022-12-01T16:38:16.319Z,100406.55
2022-12-01T16:41:38.393Z,100406.14
2022-12-01T16:44:41.190Z,100402.39
2022-12-01T16:47:44.119Z,100405.45
2022-12-01T16:50:47.247Z,100405.33
2022-12-01T16:53:51.115Z,100407.41
2022-12-01T16:56:53.014Z,100407.29
2022-12-01T16:59:54.621Z,100411.08
2022-12-01T17:02:57.247Z,100405.95
2022-12-01T17:06:01.067Z,100401.54
2022-12-01T17:09:02.939Z,100395.65
2022-12-01T17:12:04.977Z,100394.48
2022-12-01T17:15:07.802Z,100398.81
2022-12-01T17:18:09.973Z,100398.20
2022-12-01T17:21:11.798Z,100398.79
2022-12-01T17:24:17.673Z,100398.05
2022-12-01T17:27:21.245Z,100401.22
2022-12-01T17:30:23.000Z,100398.81
2022-12-01T17:33:24.527Z,100405.86
2022-12-01T17:36:26.192Z,100406.73
2022-12-01T17:39:27.958Z,100403.91
2022-12-01T17:42:30.717Z,100407.79
2022-12-01T17:45:32.359Z,100414.19
2022-12-01T17:48:38.798Z,100411.23
2022-12-01T17:51:41.672Z,100409.14
2022-12-01T17:54:43.521Z,100407.30
2022-12-01T17:57:45.251Z,100412.67
2022-12-01T18:00:49.028Z,100413.72
2022-12-01T18:03:50.684Z,100410.01
2022-12-01T18:06:54.387Z,100411.23
2022-12-01T18:09:56.463Z,100406.97
2022-12-01T18:12:58.233Z,100405.63
2022-12-01T18:15:59.934Z,100405.92
2022-12-01T18:19:01.638Z,100403.69
2022-12-01T18:22:03.340Z,100404.98
2022-12-01T18:25:05.475Z,100405.81
2022-12-01T18:28:08.049Z,100406.36
2022-12-01T18:31:12.285Z,100403.57
2022-12-01T18:34:14.215Z,100407.23
2022-12-01T18:37:15.937Z,100408.17
2022-12-01T18:40:17.629Z,100408.73
2022-12-01T18:43:19.385Z,100405.27
2022-12-01T18:46:21.426Z,100403.55
2022-12-01T18:49:23.138Z,100400.20
2022-12-01T18:52:24.883Z,100396.27
2022-12-01T18:55:26.549Z,100396.13
2022-12-01T18:58:28.307Z,100397.79
2022-12-01T19:01:33.043Z,100396.16
2022-12-01T19:04:35.016Z,100398.03
2022-12-01T19:07:36.661Z,100397.64
2022-12-01T19:10:38.533Z,100395.70
2022-12-01T19:13:40.317Z,100396.85
2022-12-01T19:16:42.126Z,100398.60
2022-12-01T19:19:43.803Z,100395.39
2022-12-01T19:22:45.626Z,100397.05
2022-12-01T19:25:47.225Z,100396.17
2022-12-01T19:28:49.048Z,100393.00
2022-12-01T19:31:50.930Z,100390.88
2022-12-01T19:34:52.751Z,100391.64
2022-12-01T19:37:54.792Z,100392.84
2022-12-01T19:40:56.470Z,100394.92
2022-12-01T19:43:58.313Z,100396.20
2022-12-01T19:47:00.103Z,100396.86
2022-12-01T19:50:01.852Z,100400.24
2022-12-01T19:53:04.369Z,100395.74
2022-12-01T19:56:06.209Z,100393.11
2022-12-01T19:59:08.122Z,100391.29
2022-12-01T20:02:10.395Z,100391.54
2022-12-01T20:05:12.166Z,100395.21
2022-12-01T20:08:14.204Z,100394.11
2022-12-01T20:11:16.060Z,100398.59
2022-12-01T20:14:17.658Z,100398.89
2022-12-01T20:17:19.283Z,100400.39
2022-12-01T20:20:21.244Z,100395.11
2022-12-01T20:23:22.871Z,100393.47
2022-12-01T20:26:30.413Z,100395.64
2022-12-01T20:29:32.662Z,100397.39
2022-12-01T20:32:34.335Z,100395.52
2022-12-01T20:35:36.084Z,100398.70
2022-12-01T20:38:38.617Z,100393.44
2022-12-01T20:41:40.828Z,100394.35
2022-12-01T20:44:42.521Z,100396.48
2022-12-01T20:47:44.190Z,100397.84
2022-12-01T20:50:46.275Z,100397.05
2022-12-01T20:54:12.382Z,100392.12
2022-12-01T20:57:09.952Z,100390.37
2022-12-01T21:00:13.727Z,100393.79
2022-12-01T21:03:15.442Z,100393.69
2022-12-01T21:06:17.739Z,100398.86
2022-12-01T21:09:19.475Z,100394.73
2022-12-01T21:12:40.016Z,100390.90
2022-12-01T21:15:57.337Z,100392.34
2022-12-01T21:19:11.631Z,100395.32
2022-12-01T21:22:13.845Z,100391.23
2022-12-01T21:25:19.036Z,100389.33
2022-12-01T21:28:22.480Z,100387.72
2022-12-01T21:31:25.892Z,100382.02
2022-12-01T21:34:29.105Z,100389.84
2022-12-01T21:37:30.733Z,100390.20
2022-12-01T21:40:32.566Z,100388.02
2022-12-01T21:43:38.226Z,100394.48
2022-12-01T21:46:42.122Z,100397.68
2022-12-01T21:49:45.407Z,100404.15
2022-12-01T21:52:48.076Z,100402.64
2022-12-01T21:55:49.713Z,100401.98
2022-12-01T21:58:52.173Z,100403.55
2022-12-01T22:01:56.222Z,100403.97
2022-12-01T22:04:59.083Z,100397.07
2022-12-01T22:08:24.081Z,100393.67
2022-12-01T22:11:27.915Z,100395.70
2022-12-01T22:14:33.453Z,100390.79
2022-12-01T22:17:36.976Z,100394.56
2022-12-01T22:20:38.646Z,100392.55
2022-12-01T22:23:40.818Z,100392.92
2022-12-01T22:26:52.284Z,100392.68
2022-12-01T22:30:18.756Z,100391.64
2022-12-01T22:33:23.507Z,100391.63
2022-12-01T22:36:26.756Z,100387.79
2022-12-01T22:39:35.855Z,100386.30
2022-12-01T22:42:37.846Z,100384.67
2022-12-01T22:45:39.508Z,100386.16
2022-12-01T22:48:52.907Z,100381.17
2022-12-01T22:52:02.586Z,100384.70
2022-12-01T22:55:13.898Z,100378.54
2022-12-01T22:58:15.680Z,100382.23
2022-12-01T23:01:29.286Z,100381.35
2022-12-01T23:04:42.292Z,100376.89
2022-12-01T23:07:44.117Z,100372.59
2022-12-01T23:10:45.753Z,100373.64
2022-12-01T23:13:47.462Z,100374.80
2022-12-01T23:16:51.863Z,100377.64
2022-12-01T23:20:19.856Z,100372.57
2022-12-01T23:23:26.900Z,100377.77
2022-12-01T23:26:28.562Z,100374.30
2022-12-01T23:29:30.441Z,100372.05
2022-12-01T23:32:32.080Z,100376.59
2022-12-01T23:35:39.882Z,100375.06
2022-12-01T23:38:46.695Z,100371.48
2022-12-01T23:41:50.419Z,100370.45
2022-12-01T23:44:52.798Z,100373.86
2022-12-01T23:47:56.256Z,100373.33
2022-12-01T23:50:58.051Z,100371.95
2022-12-01T23:54:01.779Z,100374.54
2022-12-01T23:57:19.744Z,100372.20
